Time;durP1;ratioP1;P1;durP2;ratioP2;P2;SDS_P1;SDS_P2;PMS_P1;PMS_P2;Temp;Humidity;BMP_temperature;BMP_pressure;BME280_temperature;BME280_humidity;BME280_pressure;Samples;Min_cycle;Max_cycle;Signal;HPM_P1;HPM_P2
2022/04/30 00:01:19;;;;;;;18.42;13.85;;;8.50;99.90;;;;;;5048590;28;20028;-52
2022/04/30 00:03:46;;;;;;;17.77;13.77;;;8.40;99.90;;;;;;5031780;28;20022;-55
2022/04/30 00:06:12;;;;;;;27.67;13.45;;;8.50;99.90;;;;;;5031574;28;20510;-53
2022/04/30 00:08:38;;;;;;;17.23;13.18;;;8.60;99.90;;;;;;5029535;28;20120;-53
2022/04/30 00:11:04;;;;;;;22.75;14.45;;;8.70;99.90;;;;;;5031566;28;20115;-56
2022/04/30 00:13:30;;;;;;;19.55;16.23;;;8.80;99.90;;;;;;5049376;28;20037;-54
2022/04/30 00:15:56;;;;;;;20.05;14.52;;;8.80;99.90;;;;;;5050536;28;20028;-54
2022/04/30 00:18:25;;;;;;;23.83;14.25;;;8.90;99.90;;;;;;5050665;28;20025;-53
2022/04/30 00:20:50;;;;;;;19.02;14.95;;;8.80;99.90;;;;;;5046374;28;20025;-55
2022/04/30 00:23:22;;;;;;;21.05;14.18;;;8.90;99.90;;;;;;5032740;28;20083;-56
2022/04/30 00:25:52;;;;;;;19.23;14.23;;;8.80;99.90;;;;;;5042516;28;20571;-53
2022/04/30 00:28:20;;;;;;;15.93;13.98;;;8.80;99.90;;;;;;5048392;28;20115;-53
2022/04/30 00:30:46;;;;;;;19.05;14.75;;;8.70;99.90;;;;;;5032336;28;20422;-56
2022/04/30 00:33:12;;;;;;;23.35;14.05;;;8.60;99.90;;;;;;5031392;28;20018;-54
2022/04/30 00:35:38;;;;;;;20.27;14.40;;;8.50;99.90;;;;;;5049074;28;20491;-54
2022/04/30 00:38:04;;;;;;;15.55;12.73;;;8.30;99.90;;;;;;5049339;28;20060;-50
2022/04/30 00:40:31;;;;;;;18.17;13.95;;;8.20;99.90;;;;;;5038322;28;20527;-52
2022/04/30 00:42:56;;;;;;;21.80;14.73;;;8.00;99.90;;;;;;5030709;28;20037;-56
2022/04/30 00:48:45;;;;;;;20.52;16.70;;;7.80;99.90;;;;;;5041292;28;20066;-55
2022/04/30 00:51:13;;;;;;;26.70;15.93;;;7.70;99.90;;;;;;5040257;28;20025;-53
2022/04/30 00:53:46;;;;;;;20.70;15.90;;;7.60;99.90;;;;;;5050966;28;20033;-56
2022/04/30 00:56:13;;;;;;;17.73;14.43;;;7.50;99.90;;;;;;5031981;28;20548;-54
2022/04/30 00:58:45;;;;;;;18.40;13.82;;;7.40;99.90;;;;;;5029506;28;20120;-52
2022/04/30 01:01:11;;;;;;;19.15;14.85;;;7.30;99.90;;;;;;5032014;28;20082;-55
2022/04/30 01:03:37;;;;;;;19.90;14.05;;;7.10;99.90;;;;;;5041766;28;20033;-49
2022/04/30 01:06:04;;;;;;;17.83;13.30;;;7.00;99.90;;;;;;5034362;28;20032;-55
2022/04/30 01:08:31;;;;;;;16.65;13.68;;;6.90;99.90;;;;;;5034352;28;20473;-53
2022/04/30 01:11:00;;;;;;;18.67;13.02;;;6.90;99.90;;;;;;5034398;28;20029;-54
2022/04/30 01:13:28;;;;;;;17.50;13.05;;;6.90;99.90;;;;;;5052498;28;20021;-54
2022/04/30 01:15:58;;;;;;;20.88;14.90;;;6.90;99.90;;;;;;5045314;28;20029;-52
2022/04/30 01:18:27;;;;;;;24.92;15.40;;;6.80;99.90;;;;;;5033636;28;20049;-52
2022/04/30 01:21:01;;;;;;;18.75;14.80;;;6.80;99.90;;;;;;5039722;28;20021;-51
2022/04/30 01:23:27;;;;;;;21.13;14.65;;;6.70;99.90;;;;;;5037504;28;20342;-51
2022/04/30 01:25:53;;;;;;;16.63;14.82;;;6.70;99.90;;;;;;5040268;28;20029;-50
2022/04/30 01:28:19;;;;;;;17.75;15.35;;;6.70;99.90;;;;;;5053705;28;20198;-48
2022/04/30 01:30:45;;;;;;;18.70;14.85;;;6.70;99.90;;;;;;5051382;28;20108;-53
2022/04/30 01:38:40;;;;;;;22.00;16.35;;;6.60;99.90;;;;;;5054152;28;20419;-51
2022/04/30 01:41:06;;;;;;;21.67;15.52;;;6.60;99.90;;;;;;5052621;28;20439;-52
2022/04/30 01:43:33;;;;;;;19.85;15.40;;;6.60;99.90;;;;;;5034010;28;20636;-53
2022/04/30 01:46:01;;;;;;;22.95;17.30;;;6.50;99.90;;;;;;5035808;28;20025;-57
2022/04/30 01:48:27;;;;;;;24.52;16.42;;;6.50;99.90;;;;;;5034179;28;20036;-55
2022/04/30 01:50:55;;;;;;;21.50;15.45;;;6.40;99.90;;;;;;5044189;28;20384;-51
2022/04/30 01:53:20;;;;;;;20.20;15.70;;;6.40;99.90;;;;;;5054287;28;20021;-55
2022/04/30 01:55:46;;;;;;;21.75;16.45;;;6.40;99.90;;;;;;5052679;28;20029;-56
2022/04/30 01:58:12;;;;;;;25.02;17.55;;;6.40;99.90;;;;;;5047819;28;20036;-54
2022/04/30 02:00:37;;;;;;;23.67;17.30;;;6.30;99.90;;;;;;5034212;28;20034;-51
2022/04/30 02:03:12;;;;;;;17.27;14.35;;;6.40;99.90;;;;;;5053967;28;20025;-54
2022/04/30 02:05:40;;;;;;;25.40;15.55;;;6.30;99.90;;;;;;5054007;28;20384;-53
2022/04/30 02:08:12;;;;;;;24.83;16.02;;;6.20;99.90;;;;;;5051075;28;20108;-55
2022/04/30 02:10:40;;;;;;;27.58;15.85;;;6.10;99.90;;;;;;5053294;28;20111;-55
2022/04/30 02:13:08;;;;;;;21.45;16.95;;;6.10;99.90;;;;;;5034038;28;20641;-51
2022/04/30 02:15:35;;;;;;;22.25;16.55;;;6.00;99.90;;;;;;5050775;28;20156;-51
2022/04/30 02:18:03;;;;;;;19.73;16.08;;;6.00;99.90;;;;;;5051891;28;20020;-50
2022/04/30 02:20:33;;;;;;;19.70;15.13;;;5.90;99.90;;;;;;5046833;28;20026;-52
2022/04/30 02:23:05;;;;;;;24.00;16.52;;;5.80;99.90;;;;;;5034009;28;20053;-56
2022/04/30 02:25:31;;;;;;;19.90;16.83;;;5.70;99.90;;;;;;5034829;28;20037;-55
2022/04/30 02:28:04;;;;;;;21.13;15.85;;;5.70;99.90;;;;;;5049066;28;20553;-55
2022/04/30 02:30:37;;;;;;;24.15;15.30;;;5.60;99.90;;;;;;5052059;28;20035;-52
2022/04/30 02:33:04;;;;;;;;;;;5.70;99.90;;;;;;5037469;28;20032;-52
2022/04/30 02:35:34;;;;;;;19.60;14.50;;;5.70;99.90;;;;;;5035394;28;20582;-51
2022/04/30 02:38:01;;;;;;;23.73;14.73;;;5.60;99.90;;;;;;5053060;28;20037;-52
2022/04/30 02:40:28;;;;;;;24.35;14.30;;;5.60;99.90;;;;;;5052664;28;20049;-51
2022/04/30 02:42:56;;;;;;;19.10;14.57;;;5.60;99.90;;;;;;5053354;28;20480;-56
2022/04/30 02:45:22;;;;;;;23.38;14.98;;;5.60;99.90;;;;;;5052811;28;20064;-52
2022/04/30 02:47:53;;;;;;;20.50;15.52;;;5.50;99.90;;;;;;5052674;28;20476;-50
2022/04/30 02:50:20;;;;;;;21.98;16.77;;;5.40;99.90;;;;;;5052844;28;20056;-56
2022/04/30 02:52:46;;;;;;;22.55;16.45;;;5.50;99.90;;;;;;5053364;28;20384;-48
2022/04/30 02:55:12;;;;;;;20.00;15.63;;;5.40;99.90;;;;;;5050954;28;20040;-53
2022/04/30 03:00:35;;;;;;;17.75;14.90;;;5.30;99.90;;;;;;5050522;28;20040;-54
2022/04/30 03:03:00;;;;;;;20.67;16.05;;;5.30;99.90;;;;;;5052337;28;20021;-53
2022/04/30 03:05:27;;;;;;;22.67;17.15;;;5.20;99.90;;;;;;5052305;28;20063;-53
2022/04/30 03:07:53;;;;;;;26.13;15.38;;;5.20;99.90;;;;;;5052717;28;20029;-53
2022/04/30 03:10:21;;;;;;;21.60;15.45;;;5.10;99.90;;;;;;5052280;28;20037;-54
2022/04/30 03:12:49;;;;;;;20.10;15.77;;;5.10;99.90;;;;;;5051269;28;20498;-49
2022/04/30 03:15:17;;;;;;;18.70;16.23;;;5.00;99.90;;;;;;5051405;28;20048;-54
2022/04/30 03:23:12;;;;;;;22.13;16.15;;;4.80;99.90;;;;;;5032802;28;20176;-52
2022/04/30 03:25:37;;;;;;;20.63;15.25;;;4.80;99.90;;;;;;5039959;28;20697;-53
2022/04/30 03:28:03;;;;;;;18.77;15.95;;;4.80;99.90;;;;;;5032485;28;20538;-51
2022/04/30 03:30:29;;;;;;;20.73;15.00;;;4.70;99.90;;;;;;5033484;28;20164;-51
2022/04/30 03:32:55;;;;;;;17.13;13.73;;;4.60;99.90;;;;;;5032929;28;20014;-48
2022/04/30 03:35:21;;;;;;;22.33;16.05;;;4.60;99.90;;;;;;5032221;28;20035;-52
2022/04/30 03:37:46;;;;;;;18.05;15.35;;;4.50;99.90;;;;;;5032897;28;20032;-53
2022/04/30 03:40:14;;;;;;;18.75;14.95;;;4.40;99.90;;;;;;5046719;28;20120;-54
2022/04/30 03:42:39;;;;;;;24.55;15.82;;;4.40;99.90;;;;;;5051857;28;20491;-52
2022/04/30 03:45:05;;;;;;;21.42;14.52;;;4.40;99.90;;;;;;5050175;28;20017;-56
2022/04/30 03:47:31;;;;;;;15.63;13.20;;;4.30;99.90;;;;;;5051723;28;20115;-52
2022/04/30 03:49:59;;;;;;;20.30;15.15;;;4.20;99.90;;;;;;5051375;28;20425;-50
2022/04/30 03:52:24;;;;;;;23.35;16.73;;;4.20;99.90;;;;;;5031776;28;20048;-54
2022/04/30 03:54:50;;;;;;;22.98;15.90;;;4.20;99.90;;;;;;5041852;28;20076;-52
2022/04/30 03:57:16;;;;;;;20.20;14.65;;;4.10;99.90;;;;;;5051048;28;20040;-54
2022/04/30 03:59:41;;;;;;;17.58;14.32;;;4.00;99.90;;;;;;5052131;28;20449;-49
2022/04/30 04:02:07;;;;;;;23.77;14.63;;;4.10;99.90;;;;;;5049891;28;20029;-51
2022/04/30 04:04:33;;;;;;;17.77;14.88;;;4.10;99.90;;;;;;5051584;28;20067;-55
2022/04/30 04:06:59;;;;;;;18.52;14.60;;;4.20;99.90;;;;;;5032194;28;20453;-50
2022/04/30 04:09:24;;;;;;;16.38;13.98;;;4.20;99.90;;;;;;5031786;28;20112;-52
2022/04/30 04:11:59;;;;;;;17.25;14.15;;;4.20;99.90;;;;;;5031610;28;20068;-55
2022/04/30 04:19:53;;;;;;;23.98;17.77;;;4.30;99.90;;;;;;5031346;28;20083;-54
2022/04/30 04:22:20;;;;;;;24.80;16.65;;;4.30;99.90;;;;;;5034958;28;20172;-53
2022/04/30 04:27:30;;;;;;;26.30;16.90;;;4.30;99.90;;;;;;5051126;28;20048;-51
2022/04/30 04:29:56;;;;;;;25.48;17.95;;;4.50;99.90;;;;;;5049772;28;20036;-53
2022/04/30 04:32:22;;;;;;;21.65;17.48;;;4.50;99.90;;;;;;5049819;28;20108;-51
2022/04/30 04:34:48;;;;;;;20.52;16.75;;;4.60;99.90;;;;;;5051416;28;20024;-52
2022/04/30 04:37:14;;;;;;;19.38;14.85;;;4.60;99.90;;;;;;5048448;28;20026;-51
2022/04/30 04:39:40;;;;;;;21.10;16.75;;;4.60;99.90;;;;;;5033431;28;20025;-50
2022/04/30 04:42:07;;;;;;;21.95;16.35;;;4.70;99.90;;;;;;5035615;28;20013;-54
2022/04/30 04:44:34;;;;;;;24.58;15.05;;;4.80;99.90;;;;;;5031095;28;20022;-50
2022/04/30 04:47:00;;;;;;;24.95;16.50;;;4.90;99.90;;;;;;5048593;28;20691;-53
2022/04/30 04:49:27;;;;;;;21.52;13.93;;;5.00;99.90;;;;;;5050509;28;20456;-54
2022/04/30 04:51:53;;;;;;;21.58;15.65;;;5.10;99.90;;;;;;5051045;28;20025;-55
2022/04/30 04:54:19;;;;;;;16.35;14.45;;;5.30;99.90;;;;;;5045237;28;20018;-53
2022/04/30 04:56:45;;;;;;;30.33;15.63;;;5.30;99.90;;;;;;5031342;28;20358;-53
2022/04/30 04:59:13;;;;;;;22.10;16.05;;;5.50;99.90;;;;;;5031254;28;20049;-54
2022/04/30 05:01:39;;;;;;;24.85;15.55;;;5.50;99.90;;;;;;5032138;28;20021;-55
2022/04/30 05:04:05;;;;;;;20.27;14.43;;;5.60;99.90;;;;;;5031190;28;20021;-54
2022/04/30 05:06:31;;;;;;;24.65;14.27;;;5.70;99.90;;;;;;5031227;28;20045;-54
2022/04/30 05:08:56;;;;;;;24.70;14.20;;;5.90;99.90;;;;;;5040688;28;20147;-56
2022/04/30 05:11:22;;;;;;;26.33;15.00;;;6.20;99.90;;;;;;5050686;28;20060;-57
2022/04/30 05:13:48;;;;;;;23.48;13.68;;;6.50;99.90;;;;;;5050966;28;20044;-56
2022/04/30 05:16:13;;;;;;;18.85;16.58;;;6.80;99.90;;;;;;5050725;28;20085;-57
2022/04/30 05:18:39;;;;;;;21.80;16.75;;;7.10;99.90;;;;;;5049242;28;20029;-52
2022/04/30 05:21:05;;;;;;;18.75;14.85;;;7.10;99.90;;;;;;5031088;28;20036;-56
2022/04/30 05:23:32;;;;;;;22.35;15.50;;;7.30;99.90;;;;;;5031002;28;20069;-54
2022/04/30 05:25:58;;;;;;;18.77;14.15;;;7.40;99.90;;;;;;5046653;28;20098;-58
2022/04/30 05:28:24;;;;;;;25.63;16.30;;;7.40;99.90;;;;;;5050539;28;20067;-56
2022/04/30 05:30:49;;;;;;;15.05;13.43;;;7.70;99.90;;;;;;5049230;28;20415;-53
2022/04/30 05:33:15;;;;;;;12.13;10.55;;;8.10;99.90;;;;;;5035709;28;20032;-53
2022/04/30 05:35:41;;;;;;;13.45;10.50;;;8.50;99.90;;;;;;5031030;28;20064;-57
2022/04/30 05:38:06;;;;;;;16.55;11.55;;;8.90;99.90;;;;;;5030991;28;20056;-52
2022/04/30 05:40:32;;;;;;;20.73;12.75;;;9.20;99.90;;;;;;5048846;28;20040;-53
2022/04/30 05:42:58;;;;;;;15.63;10.27;;;9.30;99.90;;;;;;5050466;28;20029;-57
2022/04/30 05:45:24;;;;;;;13.88;9.93;;;9.60;99.90;;;;;;5049170;28;20055;-52
2022/04/30 05:47:50;;;;;;;14.77;9.23;;;9.70;99.90;;;;;;5042695;28;20017;-55
2022/04/30 05:50:16;;;;;;;18.83;10.38;;;9.90;99.90;;;;;;5031935;28;20283;-57
2022/04/30 05:52:41;;;;;;;17.08;10.13;;;10.10;99.90;;;;;;5033639;28;20369;-53
2022/04/30 05:55:07;;;;;;;11.88;9.18;;;10.20;99.90;;;;;;5045704;28;20040;-56
2022/04/30 05:57:33;;;;;;;13.07;9.25;;;10.30;99.90;;;;;;5053791;28;20033;-53
2022/04/30 05:59:59;;;;;;;22.40;9.80;;;10.50;99.90;;;;;;5053364;28;20066;-58
2022/04/30 06:02:25;;;;;;;12.27;9.95;;;10.70;99.90;;;;;;5053430;28;20427;-54
2022/04/30 06:04:51;;;;;;;12.00;8.35;;;10.80;99.90;;;;;;5054190;28;20044;-54
2022/04/30 06:07:17;;;;;;;12.65;8.50;;;10.90;99.90;;;;;;5036284;28;20033;-54
2022/04/30 06:09:43;;;;;;;15.43;9.48;;;10.90;99.90;;;;;;5035359;28;20040;-56
2022/04/30 06:12:09;;;;;;;14.82;8.75;;;11.10;99.90;;;;;;5053547;28;20037;-55
2022/04/30 06:14:35;;;;;;;17.30;10.05;;;11.30;99.90;;;;;;5053619;28;20052;-54
2022/04/30 06:17:00;;;;;;;12.35;8.98;;;11.40;99.90;;;;;;5036096;28;20029;-53
2022/04/30 06:19:26;;;;;;;13.57;8.77;;;11.60;99.90;;;;;;5033938;28;20045;-53
2022/04/30 06:21:53;;;;;;;9.43;7.90;;;11.80;99.90;;;;;;5046322;28;20028;-55
2022/04/30 06:24:19;;;;;;;15.07;8.27;;;11.80;99.90;;;;;;5051523;28;20013;-52
2022/04/30 06:26:44;;;;;;;10.88;8.02;;;11.80;99.90;;;;;;5046950;28;20036;-56
2022/04/30 06:29:11;;;;;;;17.73;8.18;;;11.90;99.90;;;;;;5033838;28;20027;-54
2022/04/30 06:31:37;;;;;;;19.42;9.13;;;12.10;99.90;;;;;;5033479;28;20026;-55
2022/04/30 06:34:04;;;;;;;27.15;9.43;;;12.30;99.90;;;;;;5033827;28;20033;-57
2022/04/30 06:36:29;;;;;;;17.25;8.30;;;12.40;99.90;;;;;;5033539;28;20449;-57
2022/04/30 06:38:55;;;;;;;11.43;7.90;;;12.40;99.90;;;;;;5033434;28;20034;-57
2022/04/30 06:41:21;;;;;;;12.70;8.27;;;12.40;99.90;;;;;;5045439;28;20021;-57
2022/04/30 06:43:49;;;;;;;14.95;7.97;;;12.40;99.90;;;;;;5037690;28;20013;-57
2022/04/30 06:46:16;;;;;;;18.58;7.60;;;12.50;99.90;;;;;;5033453;28;20538;-54
2022/04/30 06:48:41;;;;;;;14.70;6.93;;;12.60;99.90;;;;;;5033372;28;20028;-57
2022/04/30 06:51:07;;;;;;;8.30;6.57;;;12.90;99.90;;;;;;5033393;28;20465;-56
2022/04/30 06:59:09;;;;;;;10.43;7.03;;;13.10;99.50;;;;;;5033274;28;20040;-54
2022/04/30 07:01:43;;;;;;;9.60;6.53;;;13.30;99.90;;;;;;5032004;28;20032;-57
2022/04/30 07:04:10;;;;;;;12.38;7.07;;;13.30;99.90;;;;;;5030264;28;20421;-57
2022/04/30 07:06:36;;;;;;;10.63;7.32;;;13.10;98.50;;;;;;5035415;28;20028;-57
2022/04/30 07:09:06;;;;;;;11.90;7.40;;;13.10;99.00;;;;;;5051909;28;20025;-55
2022/04/30 07:11:32;;;;;;;9.93;6.88;;;13.30;99.70;;;;;;5052235;28;20044;-56
2022/04/30 07:13:58;;;;;;;13.70;6.78;;;13.30;98.20;;;;;;5047128;28;20035;-55
2022/04/30 07:16:24;;;;;;;21.33;8.20;;;13.40;98.40;;;;;;5032266;28;20048;-55
2022/04/30 07:18:50;;;;;;;13.48;6.78;;;13.30;99.10;;;;;;5035891;28;20384;-63
2022/04/30 07:21:16;;;;;;;13.20;6.97;;;13.30;99.70;;;;;;5032363;28;20025;-51
2022/04/30 07:23:42;;;;;;;9.55;7.78;;;13.20;98.60;;;;;;5032132;28;20048;-51
2022/04/30 07:26:08;;;;;;;11.45;6.82;;;13.20;99.90;;;;;;5033814;28;20112;-55
2022/04/30 07:28:35;;;;;;;17.65;7.20;;;13.20;99.70;;;;;;5032683;28;20436;-52
2022/04/30 07:31:05;;;;;;;12.43;7.60;;;13.20;99.60;;;;;;5033602;28;20445;-57
2022/04/30 07:33:31;;;;;;;9.10;7.28;;;13.10;99.90;;;;;;5033270;28;20443;-54
2022/04/30 07:35:57;;;;;;;10.80;7.88;;;13.00;99.70;;;;;;5032043;28;20032;-55
2022/04/30 07:38:23;;;;;;;11.35;7.55;;;13.00;99.90;;;;;;5031941;28;20030;-55
2022/04/30 07:40:48;;;;;;;17.02;7.32;;;13.10;99.90;;;;;;5040054;28;20079;-51
2022/04/30 07:43:14;;;;;;;14.48;6.78;;;13.20;99.90;;;;;;5051994;28;20036;-53
2022/04/30 07:45:40;;;;;;;13.27;7.85;;;13.10;99.50;;;;;;5042830;28;20071;-54
2022/04/30 07:48:06;;;;;;;12.15;8.73;;;13.20;99.90;;;;;;5051991;28;20024;-53
2022/04/30 07:50:35;;;;;;;13.38;7.50;;;13.40;99.90;;;;;;5049292;28;20371;-56
2022/04/30 07:53:05;;;;;;;16.90;8.85;;;13.40;99.30;;;;;;5051992;28;20028;-57
2022/04/30 07:55:31;;;;;;;11.48;8.35;;;13.40;99.90;;;;;;5038310;28;20018;-55
2022/04/30 07:57:58;;;;;;;11.15;8.77;;;13.20;99.90;;;;;;5046746;28;20055;-55
2022/04/30 08:00:24;;;;;;;11.35;8.77;;;13.50;99.90;;;;;;5044935;28;20018;-57
2022/04/30 08:02:50;;;;;;;10.05;8.55;;;13.40;99.90;;;;;;5031523;28;20075;-56
2022/04/30 08:05:16;;;;;;;13.75;8.02;;;13.70;99.90;;;;;;5031597;28;20469;-56
2022/04/30 08:07:42;;;;;;;14.68;8.40;;;13.90;99.80;;;;;;5031649;28;20060;-56
2022/04/30 08:10:08;;;;;;;14.95;9.50;;;13.80;98.50;;;;;;5031903;28;20064;-54
2022/04/30 08:12:34;;;;;;;15.57;8.55;;;13.90;99.40;;;;;;5031787;28;20109;-55
2022/04/30 08:14:59;;;;;;;10.48;8.48;;;14.10;99.20;;;;;;5033269;28;20124;-58
2022/04/30 08:17:27;;;;;;;10.18;7.53;;;14.30;99.00;;;;;;5051203;28;20091;-55
2022/04/30 08:19:53;;;;;;;10.55;7.32;;;14.30;99.40;;;;;;5051044;28;20049;-54
2022/04/30 08:22:19;;;;;;;8.75;7.13;;;14.40;98.30;;;;;;5035247;28;20053;-54
2022/04/30 08:24:45;;;;;;;13.80;7.15;;;14.30;96.70;;;;;;5032933;28;20017;-54
2022/04/30 08:27:11;;;;;;;9.77;7.40;;;14.40;97.50;;;;;;5030770;28;20022;-53
2022/04/30 08:29:37;;;;;;;8.70;7.68;;;14.60;97.30;;;;;;5031036;28;20037;-56
2022/04/30 08:32:03;;;;;;;11.60;7.30;;;14.50;97.40;;;;;;5031964;28;20025;-50
2022/04/30 08:34:30;;;;;;;10.38;8.27;;;14.60;97.00;;;;;;5029473;28;20041;-51
2022/04/30 08:36:56;;;;;;;23.25;7.75;;;14.60;96.60;;;;;;5046604;28;20040;-55
2022/04/30 08:39:22;;;;;;;13.52;8.38;;;14.70;96.60;;;;;;5031259;28;20025;-55
2022/04/30 08:41:47;;;;;;;10.68;8.40;;;14.70;97.90;;;;;;5031326;28;20413;-56
2022/04/30 08:44:17;;;;;;;13.15;7.72;;;14.70;96.40;;;;;;5031049;28;20033;-56
2022/04/30 08:46:44;;;;;;;14.35;7.30;;;15.00;97.50;;;;;;5031095;28;20105;-56
2022/04/30 08:49:10;;;;;;;13.07;7.70;;;15.20;97.20;;;;;;5048725;28;20025;-54
2022/04/30 08:51:37;;;;;;;12.90;8.15;;;15.30;96.90;;;;;;5050277;28;20098;-55
2022/04/30 08:54:04;;;;;;;7.72;6.75;;;15.40;97.00;;;;;;5050206;28;20076;-56
2022/04/30 08:56:29;;;;;;;17.13;7.90;;;15.50;95.60;;;;;;5050334;28;20075;-56
2022/04/30 08:59:04;;;;;;;14.05;6.85;;;15.50;95.20;;;;;;5049211;28;20029;-54
2022/04/30 09:01:46;;;;;;;10.50;7.28;;;15.80;95.00;;;;;;5049628;28;20566;-56
2022/04/30 09:04:12;;;;;;;13.98;7.65;;;15.90;94.30;;;;;;5031097;28;20022;-56
2022/04/30 09:06:55;;;;;;;14.93;7.80;;;16.10;94.20;;;;;;5038373;28;20021;-52
2022/04/30 09:09:27;;;;;;;16.08;7.88;;;16.00;94.30;;;;;;5051045;28;20062;-55
2022/04/30 09:11:56;;;;;;;8.90;7.15;;;16.10;94.00;;;;;;5050726;28;20029;-55
2022/04/30 09:14:28;;;;;;;10.07;7.38;;;16.20;93.20;;;;;;5050565;28;20045;-58
2022/04/30 09:17:09;;;;;;;11.73;8.00;;;16.00;91.50;;;;;;5050675;28;20044;-71
2022/04/30 09:19:46;;;;;;;13.93;7.80;;;16.10;91.80;;;;;;5046794;28;20448;-57
2022/04/30 09:22:14;;;;;;;10.55;7.88;;;16.40;91.90;;;;;;5049414;28;20029;-54
2022/04/30 09:24:48;;;;;;;10.18;6.97;;;16.60;91.40;;;;;;5031052;28;20021;-57
2022/04/30 09:27:15;;;;;;;9.38;7.95;;;16.80;91.40;;;;;;5033351;28;20036;-53
2022/04/30 09:29:41;;;;;;;8.45;7.57;;;17.00;90.30;;;;;;5036038;28;20440;-57
2022/04/30 09:32:07;;;;;;;11.80;7.20;;;17.10;89.90;;;;;;5037182;28;20065;-57
2022/04/30 09:37:42;;;;;;;11.23;7.82;;;17.50;90.20;;;;;;5052738;28;20068;-57
2022/04/30 09:40:28;;;;;;;17.50;7.97;;;17.30;86.40;;;;;;5054494;28;20352;-56
2022/04/30 09:42:53;;;;;;;13.18;7.93;;;17.40;89.10;;;;;;5034601;28;20040;-54
2022/04/30 09:45:26;;;;;;;10.18;8.07;;;17.50;87.70;;;;;;5034563;28;20017;-57
2022/04/30 09:47:53;;;;;;;11.18;7.60;;;17.50;87.10;;;;;;5040578;28;20512;-56
2022/04/30 09:55:53;;;;;;;9.93;7.30;;;17.90;83.20;;;;;;5034755;28;20408;-55
2022/04/30 09:58:28;;;;;;;11.80;7.90;;;18.00;85.00;;;;;;5033374;28;20022;-57
2022/04/30 10:00:56;;;;;;;10.00;8.02;;;18.10;84.60;;;;;;5034752;28;20025;-58
2022/04/30 10:03:28;;;;;;;19.52;7.78;;;18.20;81.20;;;;;;5046599;28;20031;-57
2022/04/30 10:06:05;;;;;;;15.02;8.98;;;18.40;86.90;;;;;;5047797;28;20025;-57
2022/04/30 10:08:39;;;;;;;13.93;8.15;;;18.80;81.60;;;;;;5033981;28;20033;-57
2022/04/30 10:11:34;;;;;;;12.05;8.57;;;18.90;81.60;;;;;;5041998;28;20040;-58
2022/04/30 10:13:59;;;;;;;;;;;18.90;82.10;;;;;;5054217;28;20365;-57
2022/04/30 10:16:28;;;;;;;14.07;8.25;;;18.50;79.70;;;;;;5053509;28;19908;-55
2022/04/30 10:19:14;;;;;;;15.13;7.75;;;18.80;80.30;;;;;;5042766;28;20469;-58
2022/04/30 10:21:40;;;;;;;16.25;8.23;;;19.10;76.60;;;;;;5043987;28;20031;-57
2022/04/30 10:24:07;;;;;;;13.60;8.98;;;19.10;79.70;;;;;;5021510;28;20633;-57
2022/04/30 10:26:33;;;;;;;11.95;7.80;;;19.00;76.50;;;;;;5024572;28;20112;-53
2022/04/30 10:29:11;;;;;;;14.50;9.27;;;19.40;77.70;;;;;;5022771;28;20133;-56
2022/04/30 10:31:46;;;;;;;12.85;9.02;;;19.50;77.30;;;;;;5041807;28;20036;-55
2022/04/30 10:34:12;;;;;;;13.93;8.45;;;20.00;80.10;;;;;;5034120;28;20056;-57
2022/04/30 10:36:39;;;;;;;11.65;7.85;;;20.30;73.80;;;;;;5023315;28;20126;-58
2022/04/30 10:39:09;;;;;;;9.77;8.77;;;19.90;73.40;;;;;;5041041;28;20041;-56
2022/04/30 10:41:48;;;;;;;20.85;8.18;;;19.90;74.30;;;;;;5028857;28;20040;-55
2022/04/30 10:44:14;;;;;;;16.77;8.57;;;19.80;71.40;;;;;;5024535;28;20029;-53
2022/04/30 10:46:48;;;;;;;10.25;7.85;;;20.20;73.10;;;;;;5027136;28;20036;-54
2022/04/30 10:49:14;;;;;;;15.52;8.48;;;20.30;71.80;;;;;;5031575;28;20026;-56
2022/04/30 10:51:41;;;;;;;13.10;8.20;;;20.10;69.70;;;;;;5023596;28;20040;-56
2022/04/30 10:54:10;;;;;;;17.77;7.72;;;19.90;72.00;;;;;;5035579;28;20508;-56
2022/04/30 10:56:37;;;;;;;13.70;8.15;;;20.40;70.20;;;;;;5040350;28;20033;-55
2022/04/30 10:59:03;;;;;;;11.55;8.55;;;20.70;68.70;;;;;;5032856;28;20362;-54
2022/04/30 11:01:29;;;;;;;14.90;7.72;;;20.40;66.70;;;;;;5022498;28;20034;-54
2022/04/30 11:03:54;;;;;;;11.57;7.82;;;20.60;66.00;;;;;;5021987;28;20044;-56
2022/04/30 11:06:25;;;;;;;10.77;7.68;;;20.80;65.80;;;;;;5022423;28;20025;-52
2022/04/30 11:09:05;;;;;;;13.60;7.32;;;20.80;67.60;;;;;;5031402;28;20112;-56
2022/04/30 11:11:31;;;;;;;9.50;6.88;;;20.80;60.80;;;;;;5021177;28;20495;-56
2022/04/30 11:14:02;;;;;;;13.07;6.35;;;20.90;59.70;;;;;;5021749;28;20046;-57
2022/04/30 11:16:36;;;;;;;7.10;6.28;;;21.10;70.30;;;;;;5020827;28;20146;-58
2022/04/30 11:19:08;;;;;;;8.88;6.85;;;21.30;63.30;;;;;;5022396;28;20029;-58
2022/04/30 11:21:38;;;;;;;13.95;6.80;;;21.30;60.70;;;;;;5024883;28;20339;-56
2022/04/30 11:24:05;;;;;;;8.40;6.70;;;21.50;64.60;;;;;;5022748;28;20470;-55
2022/04/30 11:26:36;;;;;;;12.02;7.25;;;21.90;60.70;;;;;;5020916;28;20037;-56
2022/04/30 11:29:06;;;;;;;14.50;7.68;;;21.70;59.50;;;;;;5020769;28;20046;-57
2022/04/30 11:31:38;;;;;;;9.15;6.65;;;21.90;61.00;;;;;;5021640;28;20083;-54
2022/04/30 11:34:17;;;;;;;12.70;6.72;;;22.30;58.90;;;;;;5020987;28;20022;-56
2022/04/30 11:36:46;;;;;;;10.95;7.28;;;22.40;58.50;;;;;;5020745;28;20041;-53
2022/04/30 11:39:14;;;;;;;12.80;6.43;;;23.30;58.80;;;;;;5021472;28;20033;-56
2022/04/30 11:41:48;;;;;;;10.65;5.78;;;23.90;56.70;;;;;;5021151;28;20046;-57
2022/04/30 11:44:17;;;;;;;10.75;5.53;;;24.30;54.90;;;;;;5021988;28;20044;-56
2022/04/30 11:46:48;;;;;;;10.13;6.32;;;24.40;50.90;;;;;;5022020;28;20064;-55
2022/04/30 11:49:18;;;;;;;8.15;5.32;;;25.20;48.90;;;;;;5021576;28;20060;-57
2022/04/30 11:51:46;;;;;;;7.15;5.00;;;25.70;49.30;;;;;;5021590;28;20029;-56
2022/04/30 11:54:14;;;;;;;6.80;4.70;;;25.80;46.10;;;;;;5021359;28;20346;-56
2022/04/30 11:56:42;;;;;;;14.70;5.30;;;25.70;42.70;;;;;;5021181;28;20447;-57
2022/04/30 11:59:08;;;;;;;6.53;4.78;;;25.20;43.40;;;;;;5021487;28;20076;-58
2022/04/30 12:01:38;;;;;;;7.30;5.32;;;25.40;44.80;;;;;;5021224;28;20044;-55
2022/04/30 12:04:08;;;;;;;8.05;4.55;;;25.20;46.50;;;;;;5021681;28;20427;-54
2022/04/30 12:06:35;;;;;;;8.32;5.70;;;24.70;45.30;;;;;;5020889;28;20454;-57
2022/04/30 12:09:16;;;;;;;10.70;5.75;;;24.90;44.50;;;;;;5021415;28;20124;-55
2022/04/30 12:11:43;;;;;;;9.25;4.82;;;25.40;43.70;;;;;;5020459;28;20057;-56
2022/04/30 12:14:10;;;;;;;6.07;4.68;;;25.10;43.30;;;;;;5020984;28;20064;-58
2022/04/30 12:16:40;;;;;;;10.85;4.63;;;25.80;42.20;;;;;;5021309;28;20385;-57
2022/04/30 12:24:58;;;;;;;7.38;4.32;;;25.90;42.10;;;;;;5020845;28;20281;-57
2022/04/30 12:27:24;;;;;;;7.32;4.30;;;26.50;39.40;;;;;;5020920;28;20044;-57
2022/04/30 12:30:04;;;;;;;9.10;4.28;;;27.00;39.70;;;;;;5021426;28;20029;-59
2022/04/30 12:32:30;;;;;;;8.30;3.85;;;27.30;41.80;;;;;;5021079;28;20021;-57
2022/04/30 12:35:01;;;;;;;5.07;4.07;;;27.70;37.60;;;;;;5019387;28;20439;-59
2022/04/30 12:37:31;;;;;;;8.48;3.83;;;27.60;36.40;;;;;;5020598;28;20167;-55
2022/04/30 12:39:57;;;;;;;10.63;4.18;;;27.30;40.20;;;;;;5020988;28;20082;-56
2022/04/30 12:42:23;;;;;;;4.13;3.67;;;27.60;39.30;;;;;;5020212;28;20431;-55
2022/04/30 12:44:49;;;;;;;8.10;3.83;;;26.90;37.70;;;;;;5020857;28;20048;-55
2022/04/30 12:47:14;;;;;;;18.77;4.10;;;27.50;37.20;;;;;;5020624;28;20132;-55
2022/04/30 12:49:40;;;;;;;7.82;3.65;;;27.70;37.40;;;;;;5020849;28;20036;-56
2022/04/30 12:52:06;;;;;;;11.18;4.32;;;27.90;38.00;;;;;;5020677;28;20539;-56
2022/04/30 12:54:31;;;;;;;7.50;4.07;;;26.80;36.30;;;;;;5022612;28;20116;-54
2022/04/30 12:56:57;;;;;;;5.13;3.83;;;27.20;37.20;;;;;;5019865;28;20033;-55
2022/04/30 12:59:25;;;;;;;11.90;4.03;;;28.70;38.40;;;;;;5020704;28;20030;-56
2022/04/30 13:01:55;;;;;;;12.10;4.85;;;28.50;38.20;;;;;;5022683;28;20388;-56
2022/04/30 13:04:21;;;;;;;7.10;5.07;;;29.20;39.10;;;;;;5024499;28;20080;-56
2022/04/30 13:06:46;;;;;;;8.23;5.00;;;29.40;37.00;;;;;;5024681;28;20029;-56
2022/04/30 13:14:41;;;;;;;9.88;5.40;;;28.70;36.30;;;;;;5023447;28;20057;-57
2022/04/30 13:17:07;;;;;;;11.38;4.82;;;29.20;36.40;;;;;;5024199;28;20033;-56
2022/04/30 13:19:32;;;;;;;8.27;4.47;;;29.10;35.40;;;;;;5024775;28;20445;-56
2022/04/30 13:22:02;;;;;;;5.85;4.13;;;29.30;35.90;;;;;;5023815;28;20441;-56
2022/04/30 13:24:27;;;;;;;11.02;4.63;;;29.10;36.10;;;;;;5024300;28;20025;-56
2022/04/30 13:26:54;;;;;;;9.88;4.32;;;28.80;36.50;;;;;;5024774;28;20440;-56
2022/04/30 13:29:19;;;;;;;6.05;4.28;;;29.40;36.70;;;;;;5023779;28;20036;-55
2022/04/30 13:31:45;;;;;;;8.23;4.50;;;29.60;36.50;;;;;;5023693;28;20445;-56